createdAt,value
2022-12-18T00:00:10.406Z,24.30
2022-12-18T00:02:47.120Z,17.85
2022-12-18T00:05:15.835Z,12.25
2022-12-18T00:07:44.361Z,18.00
2022-12-18T00:10:15.445Z,14.80
2022-12-18T00:12:43.864Z,11.75
2022-12-18T00:15:12.389Z,13.80
2022-12-18T00:17:40.973Z,22.40
2022-12-18T00:20:12.283Z,16.67
2022-12-18T00:22:40.830Z,16.27
2022-12-18T00:25:10.634Z,17.25
2022-12-18T00:27:39.208Z,14.05
2022-12-18T00:30:08.885Z,13.23
2022-12-18T00:32:38.276Z,12.63
2022-12-18T00:35:07.879Z,9.40
2022-12-18T00:37:37.587Z,21.02
2022-12-18T00:40:08.344Z,16.70
2022-12-18T00:42:54.148Z,13.18
2022-12-18T00:45:26.120Z,20.42
2022-12-18T00:47:55.214Z,13.70
2022-12-18T00:50:24.896Z,15.32
2022-12-18T00:52:54.633Z,9.77
2022-12-18T00:55:22.870Z,13.45
2022-12-18T00:57:52.742Z,10.32
2022-12-18T01:00:21.609Z,20.55
2022-12-18T01:02:50.366Z,13.63
2022-12-18T01:05:19.034Z,15.00
2022-12-18T01:07:47.703Z,22.00
2022-12-18T01:10:17.694Z,18.40
2022-12-18T01:12:46.243Z,14.45
2022-12-18T01:15:15.927Z,19.13
2022-12-18T01:17:45.403Z,18.67
2022-12-18T01:20:14.878Z,14.40
2022-12-18T01:22:43.508Z,17.50
2022-12-18T01:25:12.346Z,12.70
2022-12-18T01:27:42.238Z,14.80
2022-12-18T01:30:12.036Z,13.40
2022-12-18T01:32:40.641Z,18.33
2022-12-18T01:35:09.996Z,13.88
2022-12-18T01:37:38.574Z,13.43
2022-12-18T01:40:09.120Z,19.10
2022-12-18T01:42:37.671Z,16.92
2022-12-18T01:45:25.293Z,16.92
2022-12-18T01:47:57.118Z,16.83
2022-12-18T01:50:30.598Z,30.75
2022-12-18T01:53:05.590Z,12.85
2022-12-18T01:55:41.853Z,16.63
2022-12-18T01:58:11.763Z,12.40
2022-12-18T02:00:41.722Z,13.45
2022-12-18T02:03:10.323Z,12.98
2022-12-18T02:05:48.147Z,18.38
2022-12-18T02:08:23.714Z,14.80
2022-12-18T02:11:02.290Z,9.52
2022-12-18T02:13:45.882Z,17.83
2022-12-18T02:16:23.581Z,21.85
2022-12-18T02:18:59.414Z,6.45
2022-12-18T02:21:39.143Z,20.52
2022-12-18T02:24:32.287Z,7.85
2022-12-18T02:27:05.655Z,13.18
2022-12-18T02:29:38.895Z,11.75
2022-12-18T02:32:13.738Z,17.92
2022-12-18T02:34:43.178Z,6.47
2022-12-18T02:37:19.533Z,8.07
2022-12-18T02:42:21.593Z,5.05
2022-12-18T02:44:52.776Z,19.25
2022-12-18T02:47:30.584Z,17.35
2022-12-18T02:50:09.767Z,13.95
2022-12-18T02:52:48.974Z,11.75
2022-12-18T02:55:33.634Z,13.57
2022-12-18T02:58:16.463Z,15.40
2022-12-18T03:00:53.912Z,15.10
2022-12-18T03:03:32.279Z,12.75
2022-12-18T03:06:05.746Z,9.80
2022-12-18T03:08:40.305Z,15.52
2022-12-18T03:11:12.567Z,14.95
2022-12-18T03:13:48.802Z,19.67
2022-12-18T03:16:22.562Z,21.13
2022-12-18T03:21:28.530Z,12.77
2022-12-18T03:23:57.948Z,15.48
2022-12-18T03:26:29.886Z,15.18
2022-12-18T03:29:08.436Z,14.93
2022-12-18T03:31:41.282Z,10.98
2022-12-18T03:34:16.905Z,8.60
2022-12-18T03:36:48.126Z,11.15
2022-12-18T03:39:17.507Z,14.80
2022-12-18T03:42:00.982Z,22.58
2022-12-18T03:44:46.783Z,12.30
2022-12-18T03:47:22.004Z,24.52
2022-12-18T03:49:58.926Z,12.75
2022-12-18T03:52:32.294Z,20.38
2022-12-18T03:55:02.233Z,13.93
2022-12-18T03:57:34.398Z,29.58
2022-12-18T04:02:50.797Z,8.50
2022-12-18T04:05:28.110Z,14.30
2022-12-18T04:07:58.274Z,13.75
2022-12-18T04:10:27.430Z,17.02
2022-12-18T04:12:59.664Z,9.48
2022-12-18T04:15:30.025Z,13.18
2022-12-18T04:18:00.671Z,19.42
2022-12-18T04:20:37.829Z,12.20
2022-12-18T04:23:06.402Z,27.95
2022-12-18T04:25:35.121Z,12.98
2022-12-18T04:28:09.608Z,13.32
2022-12-18T04:30:41.537Z,16.20
2022-12-18T04:33:12.085Z,12.70
2022-12-18T04:35:41.629Z,8.38
2022-12-18T04:38:11.765Z,11.25
2022-12-18T04:40:41.405Z,13.40
2022-12-18T04:43:17.399Z,22.30
2022-12-18T04:45:47.133Z,12.70
2022-12-18T04:48:15.698Z,9.10
2022-12-18T04:50:44.450Z,11.07
2022-12-18T04:53:13.108Z,13.68
2022-12-18T04:55:41.645Z,12.60
2022-12-18T04:58:10.131Z,7.72
2022-12-18T05:00:38.690Z,8.77
2022-12-18T05:03:08.294Z,11.63
2022-12-18T05:05:37.700Z,17.85
2022-12-18T05:08:06.745Z,26.58
2022-12-18T05:10:38.217Z,15.02
2022-12-18T05:13:07.152Z,12.25
2022-12-18T05:15:36.132Z,25.27
2022-12-18T05:18:05.562Z,12.55
2022-12-18T05:20:35.140Z,7.93
2022-12-18T05:23:03.710Z,16.00
2022-12-18T05:25:32.222Z,11.85
2022-12-18T05:28:00.795Z,11.68
2022-12-18T05:30:29.444Z,8.77
2022-12-18T05:32:57.979Z,9.88
2022-12-18T05:35:26.546Z,6.85
2022-12-18T05:37:56.164Z,4.43
2022-12-18T05:40:24.654Z,10.10
2022-12-18T05:42:53.200Z,7.95
2022-12-18T05:45:22.051Z,15.10
2022-12-18T05:47:50.546Z,5.57
2022-12-18T05:50:19.184Z,5.32
2022-12-18T05:52:47.879Z,3.53
2022-12-18T05:55:21.835Z,8.48
2022-12-18T05:57:50.574Z,9.43
2022-12-18T06:00:19.830Z,9.48
2022-12-18T06:02:49.535Z,13.52
2022-12-18T06:05:18.297Z,5.32
2022-12-18T06:07:46.837Z,9.07
2022-12-18T06:10:15.113Z,14.07
2022-12-18T06:12:45.241Z,8.88
2022-12-18T06:15:14.372Z,6.93
2022-12-18T06:17:43.365Z,15.13
2022-12-18T06:20:12.756Z,12.45
2022-12-18T06:22:41.455Z,13.90
2022-12-18T06:25:10.768Z,12.38
2022-12-18T06:27:39.140Z,15.50
2022-12-18T06:30:10.794Z,6.43
2022-12-18T06:32:39.383Z,10.40
2022-12-18T06:35:08.908Z,7.20
2022-12-18T06:37:37.535Z,8.80
2022-12-18T06:40:07.400Z,6.15
2022-12-18T06:42:36.285Z,7.15
2022-12-18T06:45:06.009Z,9.60
2022-12-18T06:47:36.851Z,10.85
2022-12-18T06:50:07.293Z,4.25
2022-12-18T06:52:35.590Z,9.65
2022-12-18T06:55:04.395Z,5.55
2022-12-18T06:57:33.503Z,7.13
2022-12-18T07:00:02.102Z,6.85
2022-12-18T07:02:33.352Z,14.38
2022-12-18T07:05:08.921Z,6.82
2022-12-18T07:07:39.399Z,11.77
2022-12-18T07:10:08.512Z,5.80
2022-12-18T07:12:37.197Z,10.45
2022-12-18T07:15:06.707Z,9.00
2022-12-18T07:17:35.209Z,4.20
2022-12-18T07:20:06.014Z,6.03
2022-12-18T07:22:34.693Z,2.58
2022-12-18T07:25:03.216Z,5.15
2022-12-18T07:27:32.030Z,5.20
2022-12-18T07:30:00.570Z,4.05
2022-12-18T07:32:29.284Z,7.40
2022-12-18T07:34:57.774Z,5.70
2022-12-18T07:37:27.756Z,10.25
2022-12-18T07:39:56.269Z,11.60
2022-12-18T07:42:33.470Z,5.32
2022-12-18T07:45:03.078Z,13.35
2022-12-18T07:47:34.510Z,3.92
2022-12-18T07:50:03.123Z,6.78
2022-12-18T07:52:32.712Z,2.80
2022-12-18T07:55:01.533Z,9.57
2022-12-18T08:00:19.189Z,8.05
2022-12-18T08:02:48.357Z,13.27
2022-12-18T08:05:17.557Z,6.35
2022-12-18T08:07:49.379Z,14.07
2022-12-18T08:10:18.295Z,8.20
2022-12-18T08:12:46.951Z,4.20
2022-12-18T08:15:15.521Z,5.45
2022-12-18T08:17:44.050Z,5.88
2022-12-18T08:20:14.906Z,7.45
2022-12-18T08:22:43.442Z,6.47
2022-12-18T08:25:13.292Z,7.13
2022-12-18T08:27:44.152Z,16.65
2022-12-18T08:30:14.068Z,9.95
2022-12-18T08:32:42.565Z,9.50
2022-12-18T08:35:12.635Z,11.77
2022-12-18T08:37:41.170Z,11.88
2022-12-18T08:40:13.851Z,9.48
2022-12-18T08:43:00.182Z,12.50
2022-12-18T08:45:28.720Z,10.00
2022-12-18T08:47:57.273Z,9.43
2022-12-18T08:50:25.605Z,12.27
2022-12-18T08:52:54.176Z,10.68
2022-12-18T08:55:23.794Z,11.63
2022-12-18T08:57:52.353Z,20.08
2022-12-18T09:00:21.074Z,17.45
2022-12-18T09:02:49.850Z,16.00
2022-12-18T09:05:19.250Z,27.70
2022-12-18T09:07:47.763Z,23.95
2022-12-18T09:10:16.335Z,39.85
2022-12-18T09:12:46.448Z,30.15
2022-12-18T09:15:15.062Z,15.98
2022-12-18T09:17:43.575Z,21.55
2022-12-18T09:20:12.716Z,21.67
2022-12-18T09:22:41.852Z,30.88
2022-12-18T09:25:10.511Z,35.97
2022-12-18T09:27:39.023Z,23.58
2022-12-18T09:30:10.928Z,29.98
2022-12-18T09:32:39.550Z,40.15
2022-12-18T09:35:08.580Z,33.30
2022-12-18T09:37:37.043Z,23.17
2022-12-18T09:40:06.568Z,27.23
2022-12-18T09:42:35.080Z,29.17
2022-12-18T09:45:05.050Z,21.95
2022-12-18T09:47:40.395Z,26.15
2022-12-18T09:50:29.646Z,36.95
2022-12-18T09:53:04.439Z,32.78
2022-12-18T09:55:38.094Z,27.75
2022-12-18T09:58:16.087Z,37.72
2022-12-18T10:00:44.667Z,39.38
2022-12-18T10:03:17.352Z,39.47
2022-12-18T10:05:57.367Z,41.67
2022-12-18T10:08:36.060Z,43.05
2022-12-18T10:11:31.300Z,35.03
2022-12-18T10:14:07.266Z,27.58
2022-12-18T10:16:47.689Z,38.25
2022-12-18T10:19:41.616Z,41.90
2022-12-18T10:22:22.853Z,38.53
2022-12-18T10:25:01.903Z,25.60
2022-12-18T10:27:31.360Z,45.88
2022-12-18T10:30:02.268Z,41.10
2022-12-18T10:32:32.440Z,44.55
2022-12-18T10:35:02.061Z,42.70
2022-12-18T10:37:31.889Z,35.80
2022-12-18T10:40:18.417Z,46.50
2022-12-18T10:43:12.557Z,42.00
2022-12-18T10:45:43.192Z,25.38
2022-12-18T10:48:21.768Z,42.53
2022-12-18T10:51:12.253Z,34.80
2022-12-18T10:53:44.494Z,38.35
2022-12-18T10:56:13.751Z,39.00
2022-12-18T10:58:42.559Z,33.55
2022-12-18T11:01:14.458Z,50.63
2022-12-18T11:03:45.573Z,50.40
2022-12-18T11:06:18.538Z,35.03
2022-12-18T11:09:01.587Z,44.20
2022-12-18T11:11:31.013Z,48.35
2022-12-18T11:14:06.324Z,46.70
2022-12-18T11:17:03.126Z,44.50
2022-12-18T11:19:36.429Z,36.55
2022-12-18T11:22:21.837Z,37.85
2022-12-18T11:25:30.245Z,37.33
2022-12-18T11:27:53.095Z,59.80
2022-12-18T11:30:28.153Z,53.50
2022-12-18T11:33:03.098Z,50.25
2022-12-18T11:35:43.055Z,52.40
2022-12-18T11:38:23.750Z,52.83
2022-12-18T11:40:59.571Z,48.53
2022-12-18T11:43:34.263Z,54.42
2022-12-18T11:46:07.720Z,43.13
2022-12-18T11:48:45.598Z,44.78
2022-12-18T11:51:26.206Z,51.28
2022-12-18T11:53:57.199Z,41.63
2022-12-18T11:56:34.734Z,56.42
2022-12-18T11:59:18.020Z,36.97
2022-12-18T12:01:53.803Z,38.47
2022-12-18T12:05:06.612Z,39.25
2022-12-18T12:07:46.764Z,41.83
2022-12-18T12:10:32.476Z,30.95
2022-12-18T12:13:19.880Z,38.63
2022-12-18T12:16:04.405Z,49.40
2022-12-18T12:18:46.027Z,39.80
2022-12-18T12:21:24.756Z,43.20
2022-12-18T12:24:01.676Z,34.85
2022-12-18T12:26:41.783Z,41.03
2022-12-18T12:29:31.276Z,36.90
2022-12-18T12:32:24.877Z,37.83
2022-12-18T12:35:10.040Z,42.92
2022-12-18T12:37:51.508Z,40.97
2022-12-18T12:40:50.245Z,49.15
2022-12-18T12:43:26.387Z,44.67
2022-12-18T12:46:03.641Z,37.80
2022-12-18T12:48:44.369Z,43.03
2022-12-18T12:51:19.321Z,46.33
2022-12-18T12:53:50.168Z,39.17
2022-12-18T12:56:21.372Z,47.03
2022-12-18T12:59:01.452Z,41.00
2022-12-18T13:01:40.024Z,42.42
2022-12-18T13:04:22.189Z,38.20
2022-12-18T13:06:58.324Z,39.33
2022-12-18T13:09:27.119Z,54.53
2022-12-18T13:12:20.938Z,39.08
2022-12-18T13:14:50.812Z,35.72
2022-12-18T13:17:34.128Z,37.30
2022-12-18T13:20:13.325Z,42.00
2022-12-18T13:22:46.924Z,34.40
2022-12-18T13:25:37.112Z,34.13
2022-12-18T13:28:15.458Z,32.72
2022-12-18T13:30:55.709Z,40.08
2022-12-18T13:36:40.830Z,34.78
2022-12-18T13:39:28.861Z,29.60
2022-12-18T13:43:00.463Z,37.95
2022-12-18T13:45:47.373Z,39.28
2022-12-18T13:48:24.301Z,30.27
2022-12-18T13:51:00.776Z,37.63
2022-12-18T13:53:40.228Z,31.23
2022-12-18T13:56:09.133Z,45.25
2022-12-18T13:58:38.153Z,38.22
2022-12-18T14:01:24.025Z,38.72
2022-12-18T14:04:19.742Z,38.35
2022-12-18T14:06:48.914Z,32.67
2022-12-18T14:09:21.795Z,46.42
2022-12-18T14:11:51.599Z,44.55
2022-12-18T14:14:21.378Z,39.85
2022-12-18T14:16:52.450Z,42.00
2022-12-18T14:19:22.963Z,38.95
2022-12-18T14:21:52.666Z,32.78
2022-12-18T14:24:23.644Z,47.80
2022-12-18T14:26:52.703Z,29.08
2022-12-18T14:29:26.017Z,38.22
2022-12-18T14:32:17.305Z,27.43
2022-12-18T14:34:46.864Z,33.60
2022-12-18T14:37:18.389Z,30.23
2022-12-18T14:39:59.037Z,23.80
2022-12-18T14:42:29.808Z,30.02
2022-12-18T14:45:43.061Z,29.30
2022-12-18T14:48:23.135Z,29.42
2022-12-18T14:51:02.149Z,33.42
2022-12-18T14:53:46.376Z,40.55
2022-12-18T14:56:21.663Z,27.83
2022-12-18T14:58:52.623Z,27.83
2022-12-18T15:01:28.846Z,39.83
2022-12-18T15:04:00.922Z,34.97
2022-12-18T15:06:36.015Z,32.25
2022-12-18T15:09:22.260Z,31.08
2022-12-18T15:11:51.347Z,28.33
2022-12-18T15:14:37.132Z,32.50
2022-12-18T15:17:08.849Z,25.73
2022-12-18T15:19:45.897Z,29.33
2022-12-18T15:22:23.055Z,31.00
2022-12-18T15:24:52.398Z,37.53
2022-12-18T15:27:28.118Z,20.58
2022-12-18T15:30:21.560Z,23.42
2022-12-18T15:32:51.018Z,22.40
2022-12-18T15:35:25.394Z,27.48
2022-12-18T15:37:54.354Z,27.58
2022-12-18T15:40:25.071Z,40.70
2022-12-18T15:43:14.087Z,39.25
2022-12-18T15:45:42.797Z,31.58
2022-12-18T15:48:22.880Z,30.20
2022-12-18T15:50:54.505Z,19.35
2022-12-18T15:53:23.148Z,20.88
2022-12-18T15:56:09.225Z,28.50
2022-12-18T15:58:37.822Z,20.08
2022-12-18T16:01:06.641Z,22.75
2022-12-18T16:03:35.343Z,26.08
2022-12-18T16:06:05.206Z,34.95
2022-12-18T16:08:34.114Z,19.58
2022-12-18T16:11:02.983Z,24.55
2022-12-18T16:13:31.590Z,30.00
2022-12-18T16:16:00.228Z,27.00
2022-12-18T16:18:28.820Z,28.63
2022-12-18T16:20:57.357Z,25.65
2022-12-18T16:23:28.052Z,23.40
2022-12-18T16:25:56.437Z,26.58
2022-12-18T16:28:25.112Z,26.95
2022-12-18T16:30:53.692Z,31.95
2022-12-18T16:33:21.930Z,27.92
2022-12-18T16:35:54.574Z,42.42
2022-12-18T16:38:22.787Z,39.53
2022-12-18T16:41:10.906Z,43.38
2022-12-18T16:43:39.800Z,38.15
2022-12-18T16:46:08.602Z,22.83
2022-12-18T16:48:36.960Z,32.25
2022-12-18T16:51:07.272Z,29.52
2022-12-18T16:53:35.838Z,28.98
2022-12-18T16:56:06.556Z,24.60
2022-12-18T16:58:35.787Z,27.17
2022-12-18T17:01:10.009Z,25.75
2022-12-18T17:03:39.163Z,33.38
2022-12-18T17:06:08.759Z,33.30
2022-12-18T17:08:37.359Z,26.15
2022-12-18T17:11:08.550Z,30.33
2022-12-18T17:13:37.395Z,26.27
2022-12-18T17:16:06.480Z,31.95
2022-12-18T17:18:35.898Z,36.33
2022-12-18T17:21:06.974Z,26.92
2022-12-18T17:23:35.542Z,31.77
2022-12-18T17:26:04.568Z,29.70
2022-12-18T17:28:34.939Z,28.95
2022-12-18T17:31:03.710Z,31.50
2022-12-18T17:33:32.107Z,38.25
2022-12-18T17:36:01.111Z,37.45
2022-12-18T17:38:29.906Z,30.77
2022-12-18T17:41:02.704Z,30.35
2022-12-18T17:43:32.882Z,28.17
2022-12-18T17:46:04.471Z,33.42
2022-12-18T17:48:35.268Z,29.83
2022-12-18T17:51:04.712Z,32.10
2022-12-18T17:53:33.170Z,24.48
2022-12-18T17:56:05.839Z,33.25
2022-12-18T17:58:38.581Z,33.47
2022-12-18T18:01:08.145Z,40.60
2022-12-18T18:03:39.027Z,31.45
2022-12-18T18:06:08.867Z,25.73
2022-12-18T18:08:38.679Z,34.60
2022-12-18T18:11:26.755Z,27.85
2022-12-18T18:14:02.646Z,26.42
2022-12-18T18:16:35.475Z,29.42
2022-12-18T18:19:06.487Z,35.38
2022-12-18T18:21:35.608Z,35.63
2022-12-18T18:24:05.682Z,27.83
2022-12-18T18:26:36.498Z,28.60
2022-12-18T18:29:12.050Z,25.20
2022-12-18T18:31:41.599Z,25.73
2022-12-18T18:34:17.860Z,29.83
2022-12-18T18:36:47.792Z,31.38
2022-12-18T18:39:16.846Z,35.05
2022-12-18T18:41:47.651Z,31.48
2022-12-18T18:44:20.512Z,28.30
2022-12-18T18:46:54.255Z,30.27
2022-12-18T18:49:24.154Z,32.55
2022-12-18T18:51:52.444Z,32.58
2022-12-18T18:54:20.972Z,34.25
2022-12-18T18:59:40.439Z,28.27
2022-12-18T19:02:10.331Z,39.45
2022-12-18T19:04:45.051Z,40.88
2022-12-18T19:07:23.860Z,42.17
2022-12-18T19:10:01.517Z,31.15
2022-12-18T19:12:51.517Z,30.63
2022-12-18T19:15:21.622Z,35.60
2022-12-18T19:17:50.267Z,41.15
2022-12-18T19:20:19.232Z,34.28
2022-12-18T19:22:51.989Z,35.45
2022-12-18T19:25:35.718Z,33.60
2022-12-18T19:28:22.157Z,35.40
2022-12-18T19:30:58.943Z,43.60
2022-12-18T19:33:45.235Z,40.45
2022-12-18T19:36:19.514Z,39.97
2022-12-18T19:38:48.485Z,32.08
2022-12-18T19:41:18.384Z,37.88
2022-12-18T19:43:47.871Z,30.63
2022-12-18T19:46:19.976Z,31.00
2022-12-18T19:48:49.430Z,28.77
2022-12-18T19:51:20.134Z,32.67
2022-12-18T19:53:51.465Z,32.42
2022-12-18T19:56:26.268Z,30.23
2022-12-18T19:58:55.422Z,33.10
2022-12-18T20:01:27.024Z,37.08
2022-12-18T20:03:57.435Z,33.97
2022-12-18T20:06:29.192Z,48.20
2022-12-18T20:09:00.328Z,36.60
2022-12-18T20:11:30.074Z,46.33
2022-12-18T20:14:02.026Z,32.80
2022-12-18T20:16:31.807Z,31.48
2022-12-18T20:19:00.664Z,41.17
2022-12-18T20:21:30.042Z,31.27
2022-12-18T20:23:59.907Z,41.03
2022-12-18T20:26:28.795Z,39.75
2022-12-18T20:28:57.689Z,33.53
2022-12-18T20:31:26.199Z,29.38
2022-12-18T20:34:00.246Z,35.22
2022-12-18T20:36:30.656Z,36.85
2022-12-18T20:39:01.492Z,34.97
2022-12-18T20:41:37.252Z,36.42
2022-12-18T20:44:23.193Z,33.60
2022-12-18T20:46:54.477Z,47.10
2022-12-18T20:49:25.747Z,40.90
2022-12-18T20:51:56.083Z,61.50
2022-12-18T20:54:27.782Z,41.28
2022-12-18T20:56:57.544Z,54.22
2022-12-18T20:59:26.248Z,52.45
2022-12-18T21:01:54.895Z,62.13
2022-12-18T21:04:25.524Z,60.03
2022-12-18T21:07:00.455Z,53.17
2022-12-18T21:09:37.768Z,43.20
2022-12-18T21:12:29.542Z,36.47
2022-12-18T21:17:30.550Z,20.55
2022-12-18T21:20:03.971Z,37.80
2022-12-18T21:22:32.956Z,40.63
2022-12-18T21:25:01.546Z,36.90
2022-12-18T21:27:29.743Z,37.42
2022-12-18T21:29:58.277Z,39.92
2022-12-18T21:32:26.791Z,35.47
2022-12-18T21:34:58.481Z,40.80
2022-12-18T21:37:28.052Z,48.15
2022-12-18T21:39:56.730Z,31.17
2022-12-18T21:42:50.989Z,58.20
2022-12-18T21:45:19.631Z,40.75
2022-12-18T21:47:48.187Z,45.08
2022-12-18T21:50:16.768Z,33.38
2022-12-18T21:52:46.306Z,44.13
2022-12-18T21:55:15.356Z,43.13
2022-12-18T21:57:43.939Z,39.58
2022-12-18T22:00:18.946Z,31.20
2022-12-18T22:03:05.662Z,38.40
2022-12-18T22:05:37.298Z,31.58
2022-12-18T22:08:07.564Z,51.88
2022-12-18T22:10:36.179Z,38.70
2022-12-18T22:13:04.654Z,35.38
2022-12-18T22:15:33.739Z,39.53
2022-12-18T22:18:02.356Z,33.15
2022-12-18T22:20:31.450Z,40.97
2022-12-18T22:23:04.237Z,49.08
2022-12-18T22:25:39.902Z,41.53
2022-12-18T22:28:26.515Z,40.78
2022-12-18T22:30:59.113Z,33.45
2022-12-18T22:33:28.744Z,37.10
2022-12-18T22:35:57.247Z,38.22
2022-12-18T22:38:25.807Z,37.58
2022-12-18T22:40:56.130Z,37.25
2022-12-18T22:43:24.775Z,33.63
2022-12-18T22:45:53.397Z,35.92
2022-12-18T22:48:21.877Z,39.80
2022-12-18T22:50:50.380Z,36.92
2022-12-18T22:53:22.645Z,37.75
2022-12-18T22:55:51.143Z,39.47
2022-12-18T22:58:21.190Z,43.83
2022-12-18T23:00:49.723Z,39.50
2022-12-18T23:03:17.945Z,47.15
2022-12-18T23:05:47.729Z,44.92
2022-12-18T23:08:16.366Z,38.42
2022-12-18T23:10:44.951Z,32.90
2022-12-18T23:13:13.491Z,43.63
2022-12-18T23:15:44.330Z,40.22
2022-12-18T23:18:12.893Z,32.83
2022-12-18T23:20:41.487Z,44.97
2022-12-18T23:23:10.298Z,41.63
2022-12-18T23:25:38.503Z,31.15
2022-12-18T23:28:07.126Z,48.95
2022-12-18T23:30:36.205Z,46.67
2022-12-18T23:33:05.827Z,43.30
2022-12-18T23:35:34.582Z,34.78
2022-12-18T23:38:02.846Z,36.97
2022-12-18T23:40:31.391Z,42.78
2022-12-18T23:43:00.965Z,51.38
2022-12-18T23:45:29.694Z,57.40
2022-12-18T23:47:57.920Z,36.65
2022-12-18T23:50:29.259Z,40.05
2022-12-18T23:53:05.321Z,39.72
2022-12-18T23:55:40.319Z,39.60
2022-12-18T23:58:15.870Z,37.75
